createdAt,value
2017-03-31T00:00:13.035Z,19.55
2017-03-31T00:00:32.364Z,19.28
2017-03-31T00:00:51.198Z,19.36
2017-03-31T00:01:10.031Z,19.35
2017-03-31T00:01:29.756Z,19.28
2017-03-31T00:01:48.608Z,19.45
2017-03-31T00:02:07.971Z,19.42
2017-03-31T00:02:27.798Z,19.43
2017-03-31T00:02:46.601Z,19.36
2017-03-31T00:03:05.432Z,19.46
2017-03-31T00:03:24.810Z,19.48
2017-03-31T00:03:43.679Z,19.54
2017-03-31T00:04:02.487Z,19.54
2017-03-31T00:04:21.797Z,19.57
2017-03-31T00:04:40.653Z,19.64
2017-03-31T00:04:59.457Z,19.51
2017-03-31T00:05:18.248Z,19.64
2017-03-31T00:05:37.602Z,19.45
2017-03-31T00:05:56.436Z,19.42
2017-03-31T00:06:15.740Z,19.5
2017-03-31T00:06:35.036Z,19.53
2017-03-31T00:06:53.892Z,19.51
2017-03-31T00:07:13.214Z,19.46
2017-03-31T00:07:32.034Z,19.51
2017-03-31T00:07:51.347Z,19.55
2017-03-31T00:08:10.721Z,19.53
2017-03-31T00:08:30.081Z,19.58
2017-03-31T00:08:49.408Z,19.63
2017-03-31T00:09:08.697Z,19.63
2017-03-31T00:09:28.135Z,19.61
2017-03-31T00:09:46.957Z,19.53
2017-03-31T00:10:06.285Z,19.53
2017-03-31T00:10:25.626Z,19.51
2017-03-31T00:10:44.961Z,19.46
2017-03-31T00:11:04.288Z,19.43
2017-03-31T00:11:23.623Z,19.53
2017-03-31T00:11:42.921Z,19.54
2017-03-31T00:12:01.763Z,19.57
2017-03-31T00:12:21.184Z,19.5
2017-03-31T00:12:40.001Z,19.68
2017-03-31T00:12:58.793Z,19.65
2017-03-31T00:13:18.087Z,19.57
2017-03-31T00:13:37.383Z,19.58
2017-03-31T00:13:56.720Z,19.57
2017-03-31T00:14:16.063Z,19.61
2017-03-31T00:14:35.464Z,19.63
2017-03-31T00:14:54.784Z,19.61
2017-03-31T00:15:14.088Z,19.45
2017-03-31T00:15:32.910Z,19.58
2017-03-31T00:15:52.211Z,19.45
2017-03-31T00:16:11.509Z,19.46
2017-03-31T00:16:30.821Z,19.45
2017-03-31T00:16:50.152Z,19.46
2017-03-31T00:17:08.990Z,19.39
2017-03-31T00:17:28.320Z,19.5
2017-03-31T00:17:47.651Z,19.5
2017-03-31T00:18:06.961Z,19.39
2017-03-31T00:18:26.268Z,19.43
2017-03-31T00:18:45.054Z,19.43
2017-03-31T00:19:03.861Z,19.48
2017-03-31T00:19:23.196Z,19.48
2017-03-31T00:19:41.487Z,19.46
2017-03-31T00:20:00.862Z,19.46
2017-03-31T00:20:19.681Z,19.38
2017-03-31T00:20:38.994Z,19.45
2017-03-31T00:20:58.321Z,19.4
2017-03-31T00:21:17.627Z,19.5
2017-03-31T00:21:36.429Z,19.51
2017-03-31T00:21:55.735Z,19.38
2017-03-31T00:22:14.523Z,19.33
2017-03-31T00:22:33.872Z,19.43
2017-03-31T00:22:52.646Z,19.36
2017-03-31T00:23:11.982Z,19.36
2017-03-31T00:23:31.320Z,19.4
2017-03-31T00:23:50.664Z,19.33
2017-03-31T00:24:09.989Z,19.45
2017-03-31T00:24:28.936Z,19.51
2017-03-31T00:24:48.251Z,19.35
2017-03-31T00:25:07.038Z,19.43
2017-03-31T00:25:26.361Z,19.53
2017-03-31T00:25:45.152Z,19.39
2017-03-31T00:26:04.006Z,19.45
2017-03-31T00:26:22.795Z,19.33
2017-03-31T00:26:42.131Z,19.48
2017-03-31T00:27:00.444Z,19.4
2017-03-31T00:27:19.269Z,19.54
2017-03-31T00:27:38.587Z,19.45
2017-03-31T00:27:57.394Z,19.5
2017-03-31T00:28:16.709Z,19.48
2017-03-31T00:28:35.493Z,19.48
2017-03-31T00:28:54.802Z,19.53
2017-03-31T00:29:14.097Z,19.35
2017-03-31T00:29:32.894Z,19.43
2017-03-31T00:29:51.708Z,19.33
2017-03-31T00:30:11.025Z,19.43
2017-03-31T00:30:29.838Z,19.54
2017-03-31T00:30:49.157Z,19.4
2017-03-31T00:31:07.948Z,19.42
2017-03-31T00:31:27.256Z,19.42
2017-03-31T00:31:46.032Z,19.36
2017-03-31T00:32:05.350Z,19.4
2017-03-31T00:32:24.656Z,19.28
2017-03-31T00:32:43.460Z,19.35
2017-03-31T00:33:02.245Z,19.39
2017-03-31T00:33:21.547Z,19.27
2017-03-31T00:33:40.872Z,19.36
2017-03-31T00:34:00.198Z,19.45
2017-03-31T00:34:19.519Z,19.43
2017-03-31T00:34:38.841Z,19.46
2017-03-31T00:34:58.170Z,19.4
2017-03-31T00:35:17.471Z,19.48
2017-03-31T00:35:36.796Z,19.31
2017-03-31T00:35:55.636Z,19.38
2017-03-31T00:36:14.955Z,19.33
2017-03-31T00:36:33.805Z,19.36
2017-03-31T00:36:52.622Z,19.38
2017-03-31T00:37:12.159Z,19.36
2017-03-31T00:37:30.967Z,19.36
2017-03-31T00:37:50.286Z,19.32
2017-03-31T00:38:09.602Z,19.4
2017-03-31T00:38:28.923Z,19.42
2017-03-31T00:38:48.255Z,19.42
2017-03-31T00:39:06.523Z,19.33
2017-03-31T00:39:25.316Z,19.31
2017-03-31T00:39:43.603Z,19.36
2017-03-31T00:40:03.032Z,19.35
2017-03-31T00:40:22.496Z,19.4
2017-03-31T00:40:41.840Z,19.46
2017-03-31T00:41:01.692Z,19.36
2017-03-31T00:41:21.049Z,19.42
2017-03-31T00:41:39.853Z,19.51
2017-03-31T00:41:59.161Z,19.4
2017-03-31T00:42:17.966Z,19.48
2017-03-31T00:42:36.989Z,19.43
2017-03-31T00:42:56.715Z,19.39
2017-03-31T00:43:16.195Z,19.46
2017-03-31T00:43:35.602Z,19.45
2017-03-31T00:43:55.005Z,19.48
2017-03-31T00:44:14.391Z,19.36
2017-03-31T00:44:33.789Z,19.53
2017-03-31T00:44:53.119Z,19.42
2017-03-31T00:45:12.428Z,19.45
2017-03-31T00:45:31.721Z,19.48
2017-03-31T00:45:51.042Z,19.55
2017-03-31T00:46:10.339Z,19.42
2017-03-31T00:46:29.164Z,19.46
2017-03-31T00:46:47.468Z,19.55
2017-03-31T00:47:06.285Z,19.5
2017-03-31T00:47:25.653Z,19.51
2017-03-31T00:47:44.983Z,19.58
2017-03-31T00:48:03.792Z,19.48
2017-03-31T00:48:22.605Z,19.5
2017-03-31T00:48:41.418Z,19.65
2017-03-31T00:49:00.716Z,19.48
2017-03-31T00:49:21.633Z,19.6
2017-03-31T00:49:40.963Z,19.58
2017-03-31T00:49:59.761Z,19.36
2017-03-31T00:50:18.069Z,19.35
2017-03-31T00:50:37.005Z,19.45
2017-03-31T00:50:56.309Z,19.45
2017-03-31T00:51:15.623Z,19.48
2017-03-31T00:51:34.422Z,19.35
2017-03-31T00:51:53.740Z,19.38
2017-03-31T00:52:12.521Z,19.38
2017-03-31T00:52:31.822Z,19.42
2017-03-31T00:52:51.135Z,19.42
2017-03-31T00:53:10.524Z,19.33
2017-03-31T00:53:31.250Z,19.25
2017-03-31T00:53:50.557Z,19.32
2017-03-31T00:54:23.857Z,19.24
2017-03-31T00:54:45.157Z,19.32
2017-03-31T00:55:06.054Z,19.33
2017-03-31T00:55:25.364Z,19.27
2017-03-31T00:55:58.132Z,19.31
2017-03-31T00:56:16.910Z,19.33
2017-03-31T00:56:36.205Z,19.28
2017-03-31T00:56:54.997Z,19.27
2017-03-31T00:57:14.298Z,19.24
2017-03-31T00:57:33.163Z,19.11
2017-03-31T00:57:52.468Z,19.24
2017-03-31T00:58:11.789Z,19.24
2017-03-31T00:58:31.127Z,19.23
2017-03-31T00:58:50.430Z,19.28
2017-03-31T00:59:09.228Z,19.25
2017-03-31T00:59:28.560Z,19.13
2017-03-31T00:59:47.345Z,19.15
2017-03-31T01:00:06.682Z,19.08
2017-03-31T01:00:25.493Z,19.18
2017-03-31T01:00:44.297Z,19.17
2017-03-31T01:01:03.678Z,19.14
2017-03-31T01:01:22.498Z,19.21
2017-03-31T01:01:41.820Z,19.2
2017-03-31T01:02:01.146Z,19.15
2017-03-31T01:02:19.954Z,19.24
2017-03-31T01:02:39.309Z,19.28
2017-03-31T01:02:58.114Z,19.14
2017-03-31T01:03:17.408Z,19.23
2017-03-31T01:03:36.193Z,19.17
2017-03-31T01:03:54.997Z,19.11
2017-03-31T01:04:14.335Z,19.23
2017-03-31T01:04:33.652Z,19.17
2017-03-31T01:04:52.978Z,19.31
2017-03-31T01:05:11.773Z,19.27
2017-03-31T01:05:31.058Z,19.23
2017-03-31T01:05:50.381Z,19.25
2017-03-31T01:06:09.200Z,19.2
2017-03-31T01:06:27.996Z,19.23
2017-03-31T01:06:46.763Z,19.24
2017-03-31T01:07:06.079Z,19.33
2017-03-31T01:07:25.373Z,19.27
2017-03-31T01:07:44.676Z,19.28
2017-03-31T01:08:03.992Z,19.31
2017-03-31T01:08:23.294Z,19.28
2017-03-31T01:08:42.099Z,19.31
2017-03-31T01:09:00.357Z,19.33
2017-03-31T01:09:19.697Z,19.35
2017-03-31T01:09:39.007Z,19.39
2017-03-31T01:09:58.328Z,19.28
2017-03-31T01:10:17.634Z,19.28
2017-03-31T01:10:36.956Z,19.28
2017-03-31T01:10:56.296Z,19.36
2017-03-31T01:11:15.620Z,19.39
2017-03-31T01:11:34.391Z,19.4
2017-03-31T01:11:53.773Z,19.28
2017-03-31T01:12:12.581Z,19.35
2017-03-31T01:12:31.920Z,19.39
2017-03-31T01:12:51.246Z,19.31
2017-03-31T01:13:10.563Z,19.31
2017-03-31T01:13:29.381Z,19.27
2017-03-31T01:13:48.689Z,19.31
2017-03-31T01:14:07.013Z,19.31
2017-03-31T01:14:26.429Z,19.33
2017-03-31T01:14:44.770Z,19.32
2017-03-31T01:15:04.133Z,19.35
2017-03-31T01:15:23.459Z,19.45
2017-03-31T01:15:42.260Z,19.42
2017-03-31T01:16:01.075Z,19.33
2017-03-31T01:16:20.385Z,19.38
2017-03-31T01:16:39.197Z,19.33
2017-03-31T01:16:58.523Z,19.28
2017-03-31T01:17:17.833Z,19.31
2017-03-31T01:17:36.631Z,19.31
2017-03-31T01:17:55.427Z,19.33
2017-03-31T01:18:14.991Z,19.32
2017-03-31T01:18:34.342Z,19.25
2017-03-31T01:18:53.671Z,19.23
2017-03-31T01:19:12.985Z,19.17
2017-03-31T01:19:31.791Z,19.24
2017-03-31T01:19:51.173Z,19.11
2017-03-31T01:20:10.504Z,19.17
2017-03-31T01:20:29.353Z,19.15
2017-03-31T01:20:47.653Z,19.18
2017-03-31T01:21:06.004Z,19.17
2017-03-31T01:21:25.362Z,19.24
2017-03-31T01:21:44.676Z,19.23
2017-03-31T01:22:03.984Z,19.18
2017-03-31T01:22:23.311Z,19.24
2017-03-31T01:22:42.095Z,19.27
2017-03-31T01:23:00.893Z,19.2
2017-03-31T01:23:20.238Z,19.17
2017-03-31T01:23:39.007Z,19.13
2017-03-31T01:23:58.356Z,19.17
2017-03-31T01:24:17.662Z,19.11
2017-03-31T01:24:36.973Z,19.13
2017-03-31T01:24:56.302Z,19.25
2017-03-31T01:25:15.605Z,19.21
2017-03-31T01:25:34.946Z,19.18
2017-03-31T01:25:53.755Z,19.25
2017-03-31T01:26:12.027Z,19.21
2017-03-31T01:26:31.337Z,19.11
2017-03-31T01:26:49.607Z,19.15
2017-03-31T01:27:08.898Z,19.09
2017-03-31T01:27:28.201Z,19.15
2017-03-31T01:27:47.498Z,19.17
2017-03-31T01:28:06.825Z,19.08
2017-03-31T01:28:25.601Z,19.08
2017-03-31T01:28:44.891Z,19.09
2017-03-31T01:29:04.204Z,18.95
2017-03-31T01:29:23.516Z,18.94
2017-03-31T01:29:42.840Z,18.95
2017-03-31T01:30:01.633Z,18.98
2017-03-31T01:30:20.408Z,18.99
2017-03-31T01:30:39.199Z,18.97
2017-03-31T01:30:58.500Z,18.94
2017-03-31T01:31:17.809Z,18.97
2017-03-31T01:31:36.594Z,18.98
2017-03-31T01:31:55.378Z,18.98
2017-03-31T01:32:14.174Z,18.94
2017-03-31T01:32:33.501Z,18.97
2017-03-31T01:32:52.852Z,18.89
2017-03-31T01:33:11.686Z,18.8
2017-03-31T01:33:31.015Z,18.82
2017-03-31T01:33:50.325Z,18.84
2017-03-31T01:34:09.664Z,18.92
2017-03-31T01:34:28.472Z,18.84
2017-03-31T01:34:47.773Z,18.84
2017-03-31T01:35:07.101Z,18.84
2017-03-31T01:35:26.429Z,18.87
2017-03-31T01:35:45.760Z,18.86
2017-03-31T01:36:05.125Z,18.89
2017-03-31T01:36:23.954Z,18.82
2017-03-31T01:36:42.738Z,18.84
2017-03-31T01:37:01.514Z,18.89
2017-03-31T01:37:19.801Z,18.87
2017-03-31T01:37:38.623Z,18.83
2017-03-31T01:37:57.915Z,18.92
2017-03-31T01:38:30.690Z,18.8
2017-03-31T01:38:49.472Z,18.86
2017-03-31T01:39:08.787Z,18.89
2017-03-31T01:39:28.123Z,18.87
2017-03-31T01:39:46.938Z,18.79
2017-03-31T01:40:06.219Z,18.76
2017-03-31T01:40:25.529Z,18.74
2017-03-31T01:40:44.908Z,18.83
2017-03-31T01:41:03.748Z,18.83
2017-03-31T01:41:23.123Z,18.82
2017-03-31T01:41:41.952Z,18.86
2017-03-31T01:42:01.287Z,18.83
2017-03-31T01:42:20.637Z,18.84
2017-03-31T01:42:39.478Z,18.87
2017-03-31T01:42:58.782Z,18.84
2017-03-31T01:43:17.584Z,18.86
2017-03-31T01:43:36.871Z,18.83
2017-03-31T01:43:56.236Z,18.83
2017-03-31T01:44:49.061Z,18.79
2017-03-31T01:45:08.452Z,18.87
2017-03-31T01:45:27.779Z,18.8
2017-03-31T01:45:47.101Z,18.86
2017-03-31T01:46:06.470Z,18.8
2017-03-31T01:46:25.890Z,18.86
2017-03-31T01:46:45.325Z,18.8
2017-03-31T01:47:04.670Z,18.73
2017-03-31T01:47:24.008Z,18.8
2017-03-31T01:47:42.844Z,18.83
2017-03-31T01:48:01.188Z,18.68
2017-03-31T01:48:20.064Z,18.74
2017-03-31T01:48:39.350Z,18.73
2017-03-31T01:48:58.678Z,18.62
2017-03-31T01:49:17.990Z,18.68
2017-03-31T01:49:37.371Z,18.64
2017-03-31T01:49:56.096Z,18.65
2017-03-31T01:50:15.394Z,18.65
2017-03-31T01:50:34.264Z,18.71
2017-03-31T01:50:53.068Z,18.69
2017-03-31T01:51:12.419Z,18.64
2017-03-31T01:51:31.824Z,18.77
2017-03-31T01:51:51.111Z,18.79
2017-03-31T01:52:09.929Z,18.68
2017-03-31T01:52:29.266Z,18.77
2017-03-31T01:52:48.690Z,18.74
2017-03-31T01:53:08.000Z,18.74
2017-03-31T01:53:27.301Z,18.79
2017-03-31T01:53:46.086Z,18.74
2017-03-31T01:54:05.405Z,18.79
2017-03-31T01:54:24.721Z,18.8
2017-03-31T01:54:43.875Z,18.8
2017-03-31T01:55:03.248Z,18.77
2017-03-31T01:55:22.598Z,18.8
2017-03-31T01:55:42.052Z,18.82
2017-03-31T01:56:00.859Z,18.82
2017-03-31T01:56:20.198Z,18.79
2017-03-31T01:56:38.496Z,18.77
2017-03-31T01:56:57.550Z,18.8
2017-03-31T01:57:16.431Z,18.76
2017-03-31T01:57:35.888Z,18.69
2017-03-31T01:57:55.770Z,18.76
2017-03-31T01:58:15.088Z,18.74
2017-03-31T01:58:34.443Z,18.8
2017-03-31T01:58:53.744Z,18.74
2017-03-31T01:59:13.167Z,18.83
2017-03-31T01:59:31.966Z,18.77
2017-03-31T01:59:50.772Z,18.82
2017-03-31T02:00:09.557Z,18.76
2017-03-31T02:00:28.370Z,18.8
2017-03-31T02:00:47.684Z,18.67
2017-03-31T02:01:06.467Z,18.73
2017-03-31T02:01:25.823Z,18.79
2017-03-31T02:01:45.174Z,18.84
2017-03-31T02:02:04.506Z,18.79
2017-03-31T02:02:23.332Z,18.8
2017-03-31T02:02:42.638Z,18.79
2017-03-31T02:03:02.004Z,18.8
2017-03-31T02:03:20.293Z,18.73
2017-03-31T02:03:39.603Z,18.82
2017-03-31T02:03:58.934Z,18.8
2017-03-31T02:04:17.729Z,18.87
2017-03-31T02:04:36.735Z,18.83
2017-03-31T02:04:56.050Z,18.86
2017-03-31T02:05:14.870Z,18.84
2017-03-31T02:05:34.186Z,18.87
2017-03-31T02:05:53.535Z,18.89
2017-03-31T02:06:12.896Z,18.84
2017-03-31T02:06:32.244Z,18.92
2017-03-31T02:06:51.048Z,18.89
2017-03-31T02:07:10.356Z,18.84
2017-03-31T02:07:29.165Z,18.82
2017-03-31T02:07:48.702Z,18.79
2017-03-31T02:08:07.525Z,18.82
2017-03-31T02:08:26.847Z,18.87
2017-03-31T02:08:45.642Z,18.82
2017-03-31T02:09:04.952Z,18.83
2017-03-31T02:09:24.299Z,18.86
2017-03-31T02:09:43.625Z,18.83
2017-03-31T02:10:02.434Z,18.89
2017-03-31T02:10:20.728Z,18.86
2017-03-31T02:10:40.080Z,18.9
2017-03-31T02:10:59.379Z,18.87
2017-03-31T02:11:18.676Z,18.86
2017-03-31T02:11:37.466Z,18.97
2017-03-31T02:11:56.259Z,18.9
2017-03-31T02:12:15.569Z,18.98
2017-03-31T02:12:34.839Z,18.98
2017-03-31T02:12:54.106Z,18.92
2017-03-31T02:13:13.370Z,19.08
2017-03-31T02:13:32.675Z,19.06
2017-03-31T02:13:51.964Z,19.11
2017-03-31T02:14:11.263Z,19.02
2017-03-31T02:14:30.043Z,18.97
2017-03-31T02:14:49.346Z,19.08
2017-03-31T02:15:08.114Z,18.99
2017-03-31T02:15:27.438Z,19.09
2017-03-31T02:15:46.829Z,18.98
2017-03-31T02:16:06.223Z,18.97
2017-03-31T02:16:25.095Z,19.11
2017-03-31T02:16:43.978Z,19.14
2017-03-31T02:17:03.311Z,19.13
2017-03-31T02:17:22.181Z,18.97
2017-03-31T02:17:41.521Z,18.98
2017-03-31T02:18:00.348Z,18.99
2017-03-31T02:18:19.685Z,18.97
2017-03-31T02:18:39.003Z,18.95
2017-03-31T02:18:58.335Z,19.02
2017-03-31T02:19:17.647Z,18.92
2017-03-31T02:19:35.946Z,18.99
2017-03-31T02:19:54.763Z,18.98
2017-03-31T02:20:14.180Z,18.95
2017-03-31T02:20:33.562Z,19.09
2017-03-31T02:20:52.474Z,18.94
2017-03-31T02:21:11.845Z,19.11
2017-03-31T02:21:31.245Z,19.15
2017-03-31T02:21:50.676Z,19.2
2017-03-31T02:22:10.029Z,19.18
2017-03-31T02:22:29.333Z,19.15
2017-03-31T02:22:48.775Z,19.13
2017-03-31T02:23:08.206Z,19.11
2017-03-31T02:23:26.982Z,19.17
2017-03-31T02:23:46.356Z,19.09
2017-03-31T02:24:07.185Z,19.08
2017-03-31T02:24:26.999Z,18.94
2017-03-31T02:24:46.484Z,19.15
2017-03-31T02:25:05.792Z,19.05
2017-03-31T02:25:25.169Z,18.97
2017-03-31T02:25:43.992Z,19.14
2017-03-31T02:26:03.321Z,18.95
2017-03-31T02:26:22.223Z,19.01
2017-03-31T02:26:41.645Z,19.14
2017-03-31T02:27:01.041Z,19.13
2017-03-31T02:27:20.479Z,18.97
2017-03-31T02:27:39.315Z,19.11
2017-03-31T02:27:59.144Z,19.01
2017-03-31T02:28:18.448Z,19.09
2017-03-31T02:28:37.937Z,19.08
2017-03-31T02:28:56.758Z,18.98
2017-03-31T02:29:16.123Z,19.13
2017-03-31T02:29:35.506Z,19.08
2017-03-31T02:29:54.899Z,19.13
2017-03-31T02:30:14.252Z,18.95
2017-03-31T02:30:33.111Z,19.13
2017-03-31T02:30:52.499Z,18.99
2017-03-31T02:31:11.827Z,19.11
2017-03-31T02:31:31.197Z,19.08
2017-03-31T02:31:50.525Z,19.11
2017-03-31T02:32:09.355Z,19.11
2017-03-31T02:32:28.724Z,19.09
2017-03-31T02:32:48.025Z,19.09
2017-03-31T02:33:07.379Z,19.13
2017-03-31T02:33:26.685Z,19.2
2017-03-31T02:33:46.000Z,19.17
2017-03-31T02:34:04.794Z,19.13
2017-03-31T02:34:23.600Z,19.2
2017-03-31T02:34:42.964Z,19.2
2017-03-31T02:35:01.750Z,19.18
2017-03-31T02:35:21.129Z,19.14
2017-03-31T02:35:40.537Z,19.24
2017-03-31T02:35:59.340Z,19.25
2017-03-31T02:36:19.151Z,19.31
2017-03-31T02:36:38.631Z,19.33
2017-03-31T02:36:57.479Z,19.35
2017-03-31T02:37:16.254Z,19.32
2017-03-31T02:37:35.551Z,19.33
2017-03-31T02:37:54.850Z,19.35
2017-03-31T02:38:13.674Z,19.32
2017-03-31T02:38:33.005Z,19.25
2017-03-31T02:38:52.327Z,19.25
2017-03-31T02:39:11.654Z,19.28
2017-03-31T02:39:31.017Z,19.28
2017-03-31T02:39:50.326Z,19.35
2017-03-31T02:40:09.156Z,19.42
2017-03-31T02:40:28.001Z,19.35
2017-03-31T02:40:47.334Z,19.43
2017-03-31T02:41:06.673Z,19.36
2017-03-31T02:41:25.470Z,19.43
2017-03-31T02:41:44.795Z,19.35
2017-03-31T02:42:04.118Z,19.4
2017-03-31T02:42:22.957Z,19.32
2017-03-31T02:42:41.795Z,19.27
2017-03-31T02:43:00.653Z,19.25
2017-03-31T02:43:19.459Z,19.27
2017-03-31T02:43:38.768Z,19.33
2017-03-31T02:43:58.077Z,19.28
2017-03-31T02:44:17.394Z,19.39
2017-03-31T02:44:36.829Z,19.28
2017-03-31T02:44:56.149Z,19.33
2017-03-31T02:45:14.946Z,19.4
2017-03-31T02:45:34.248Z,19.28
2017-03-31T02:45:53.568Z,19.4
2017-03-31T02:46:12.338Z,19.35
2017-03-31T02:46:31.723Z,19.38
2017-03-31T02:46:50.538Z,19.28
2017-03-31T02:47:09.905Z,19.42
2017-03-31T02:47:29.249Z,19.4
2017-03-31T02:47:48.064Z,19.39
2017-03-31T02:48:06.859Z,19.33
2017-03-31T02:48:26.354Z,19.32
2017-03-31T02:48:45.648Z,19.31
2017-03-31T02:49:04.966Z,19.32
2017-03-31T02:49:24.307Z,19.39
2017-03-31T02:49:43.616Z,19.32
2017-03-31T02:50:02.973Z,19.33
2017-03-31T02:50:21.745Z,19.4
2017-03-31T02:50:39.996Z,19.43
2017-03-31T02:50:58.805Z,19.35
2017-03-31T02:51:18.155Z,19.31
2017-03-31T02:51:37.523Z,19.45
2017-03-31T02:51:56.847Z,19.31
2017-03-31T02:52:16.145Z,19.28
2017-03-31T02:52:34.945Z,19.33
2017-03-31T02:52:54.229Z,19.31
2017-03-31T02:53:13.533Z,19.31
2017-03-31T02:53:32.855Z,19.28
2017-03-31T02:53:51.671Z,19.31
2017-03-31T02:54:10.989Z,19.32
2017-03-31T02:54:30.385Z,19.28
2017-03-31T02:54:49.685Z,19.27
2017-03-31T02:55:09.034Z,19.31
2017-03-31T02:55:28.375Z,19.31
2017-03-31T02:55:48.218Z,19.31
2017-03-31T02:56:07.668Z,19.38
2017-03-31T02:56:26.513Z,19.4
2017-03-31T02:56:45.301Z,19.4
2017-03-31T02:57:03.590Z,19.39
2017-03-31T02:57:22.900Z,19.38
2017-03-31T02:57:41.701Z,19.42
2017-03-31T02:57:59.471Z,19.46
2017-03-31T02:58:18.289Z,19.42
2017-03-31T02:58:37.613Z,19.46
2017-03-31T02:58:56.438Z,19.53
2017-03-31T02:59:15.772Z,19.4
2017-03-31T02:59:34.552Z,19.51
2017-03-31T02:59:53.848Z,19.51
2017-03-31T03:00:12.138Z,19.51
2017-03-31T03:00:31.446Z,19.54
2017-03-31T03:00:50.755Z,19.42
2017-03-31T03:01:09.590Z,19.48
2017-03-31T03:01:28.927Z,19.54
2017-03-31T03:01:48.248Z,19.53
2017-03-31T03:02:07.577Z,19.57
2017-03-31T03:02:26.717Z,19.57
2017-03-31T03:02:45.502Z,19.6
2017-03-31T03:03:04.790Z,19.51
2017-03-31T03:03:23.580Z,19.57
2017-03-31T03:03:42.389Z,19.5
2017-03-31T03:04:01.719Z,19.43
2017-03-31T03:04:20.517Z,19.42
2017-03-31T03:04:39.818Z,19.46
2017-03-31T03:04:59.132Z,19.5
2017-03-31T03:05:17.927Z,19.48
2017-03-31T03:05:36.244Z,19.5
2017-03-31T03:05:55.035Z,19.6
2017-03-31T03:06:13.841Z,19.55
2017-03-31T03:06:33.166Z,19.51
2017-03-31T03:06:51.997Z,19.51
2017-03-31T03:07:11.307Z,19.51
2017-03-31T03:07:30.588Z,19.42
2017-03-31T03:07:49.869Z,19.4
2017-03-31T03:08:09.170Z,19.57
2017-03-31T03:08:28.477Z,19.4
2017-03-31T03:08:47.262Z,19.46
2017-03-31T03:09:06.562Z,19.5
2017-03-31T03:09:25.850Z,19.32
2017-03-31T03:09:45.154Z,19.33
2017-03-31T03:10:04.476Z,19.28
2017-03-31T03:10:23.772Z,19.36
2017-03-31T03:10:43.080Z,19.25
2017-03-31T03:11:02.046Z,19.32
2017-03-31T03:11:20.942Z,19.32
2017-03-31T03:11:40.351Z,19.27
2017-03-31T03:11:59.660Z,19.25
2017-03-31T03:12:18.505Z,19.33
2017-03-31T03:12:37.846Z,19.27
2017-03-31T03:12:56.654Z,19.28
2017-03-31T03:13:15.978Z,19.35
2017-03-31T03:13:35.278Z,19.27
2017-03-31T03:13:54.072Z,19.18
2017-03-31T03:14:13.378Z,19.35
2017-03-31T03:14:32.696Z,19.32
2017-03-31T03:14:52.013Z,19.38
2017-03-31T03:15:10.821Z,19.32
2017-03-31T03:15:29.633Z,19.31
2017-03-31T03:15:48.936Z,19.31
2017-03-31T03:16:07.757Z,19.27
2017-03-31T03:16:27.086Z,19.31
2017-03-31T03:16:45.876Z,19.33
2017-03-31T03:17:05.190Z,19.38
2017-03-31T03:17:24.513Z,19.4
2017-03-31T03:17:43.819Z,19.35
2017-03-31T03:18:03.128Z,19.43
2017-03-31T03:18:22.442Z,19.31
2017-03-31T03:18:41.738Z,19.31
2017-03-31T03:19:00.552Z,19.35
2017-03-31T03:19:19.360Z,19.31
2017-03-31T03:19:38.682Z,19.31
2017-03-31T03:19:56.981Z,19.36
2017-03-31T03:20:16.294Z,19.31
2017-03-31T03:20:35.090Z,19.28
2017-03-31T03:20:54.398Z,19.33
2017-03-31T03:21:13.734Z,19.28
2017-03-31T03:21:32.521Z,19.31
2017-03-31T03:21:51.319Z,19.39
2017-03-31T03:22:10.639Z,19.36
2017-03-31T03:22:29.973Z,19.28
2017-03-31T03:22:49.285Z,19.28
2017-03-31T03:23:08.650Z,19.28
2017-03-31T03:23:27.960Z,19.31
2017-03-31T03:23:47.289Z,19.28
2017-03-31T03:24:06.615Z,19.31
2017-03-31T03:24:26.032Z,19.28
2017-03-31T03:24:45.353Z,19.27
2017-03-31T03:25:04.655Z,19.28
2017-03-31T03:25:23.965Z,19.32
2017-03-31T03:25:43.279Z,19.31
2017-03-31T03:26:02.088Z,19.24
2017-03-31T03:26:21.398Z,19.23
2017-03-31T03:26:40.206Z,19.31
2017-03-31T03:26:58.494Z,19.33
2017-03-31T03:27:17.823Z,19.31
2017-03-31T03:27:37.139Z,19.23
2017-03-31T03:27:56.462Z,19.32
2017-03-31T03:28:15.773Z,19.32
2017-03-31T03:28:34.554Z,19.23
2017-03-31T03:28:53.854Z,19.31
2017-03-31T03:29:12.650Z,19.31
2017-03-31T03:29:32.086Z,19.28
2017-03-31T03:29:51.386Z,19.25
2017-03-31T03:30:10.186Z,19.31
2017-03-31T03:30:29.001Z,19.33
2017-03-31T03:30:47.787Z,19.31
2017-03-31T03:31:06.592Z,19.33
2017-03-31T03:31:25.913Z,19.38
2017-03-31T03:31:45.236Z,19.38
2017-03-31T03:32:04.540Z,19.4
2017-03-31T03:32:23.874Z,19.42
2017-03-31T03:32:43.193Z,19.33
2017-03-31T03:33:01.490Z,19.48
2017-03-31T03:33:20.828Z,19.36
2017-03-31T03:33:40.151Z,19.42
2017-03-31T03:33:59.462Z,19.48
2017-03-31T03:34:18.748Z,19.42
2017-03-31T03:34:38.097Z,19.51
2017-03-31T03:34:57.417Z,19.55
2017-03-31T03:35:15.702Z,19.43
2017-03-31T03:35:34.994Z,19.5
2017-03-31T03:35:54.301Z,19.39
2017-03-31T03:36:13.618Z,19.48
2017-03-31T03:36:32.919Z,19.31
2017-03-31T03:36:52.215Z,19.32
2017-03-31T03:37:11.523Z,19.35
2017-03-31T03:37:30.301Z,19.35
2017-03-31T03:37:49.615Z,19.39
2017-03-31T03:38:08.920Z,19.33
2017-03-31T03:38:27.734Z,19.45
2017-03-31T03:38:47.025Z,19.53
2017-03-31T03:39:06.338Z,19.51
2017-03-31T03:39:25.634Z,19.53
2017-03-31T03:39:44.446Z,19.46
2017-03-31T03:40:03.238Z,19.55
2017-03-31T03:40:22.009Z,19.61
2017-03-31T03:40:40.824Z,19.61
2017-03-31T03:40:59.632Z,19.6
2017-03-31T03:41:18.938Z,19.51
2017-03-31T03:41:38.400Z,19.45
2017-03-31T03:41:57.727Z,19.58
2017-03-31T03:42:16.518Z,19.57
2017-03-31T03:42:35.818Z,19.58
2017-03-31T03:42:54.636Z,19.65
2017-03-31T03:43:13.937Z,19.58
2017-03-31T03:43:33.247Z,19.54
2017-03-31T03:43:52.043Z,19.64
2017-03-31T03:44:11.358Z,19.57
2017-03-31T03:44:30.750Z,19.65
2017-03-31T03:44:50.095Z,19.51
2017-03-31T03:45:09.394Z,19.57
2017-03-31T03:45:28.178Z,19.61
2017-03-31T03:45:46.987Z,19.61
2017-03-31T03:46:06.321Z,19.64
2017-03-31T03:46:25.677Z,19.65
2017-03-31T03:46:44.491Z,19.69
2017-03-31T03:47:03.781Z,19.71
2017-03-31T03:47:23.134Z,19.61
2017-03-31T03:47:42.480Z,19.69
2017-03-31T03:48:01.781Z,19.79
2017-03-31T03:48:21.069Z,19.64
2017-03-31T03:48:40.370Z,19.64
2017-03-31T03:48:59.168Z,19.63
2017-03-31T03:49:18.487Z,19.65
2017-03-31T03:49:37.795Z,19.55
2017-03-31T03:49:56.586Z,19.53
2017-03-31T03:50:15.889Z,19.55
2017-03-31T03:50:34.686Z,19.53
2017-03-31T03:50:54.166Z,19.58
2017-03-31T03:51:13.471Z,19.61
2017-03-31T03:51:32.278Z,19.64
2017-03-31T03:51:51.604Z,19.61
2017-03-31T03:52:10.913Z,19.65
2017-03-31T03:52:30.288Z,19.63
2017-03-31T03:52:49.583Z,19.64
2017-03-31T03:53:08.887Z,19.6
2017-03-31T03:53:27.686Z,19.58
2017-03-31T03:53:46.497Z,19.6
2017-03-31T03:54:05.809Z,19.61
2017-03-31T03:54:25.135Z,19.61
2017-03-31T03:54:43.941Z,19.64
2017-03-31T03:55:03.260Z,19.63
2017-03-31T03:55:22.090Z,19.68
2017-03-31T03:55:40.870Z,19.63
2017-03-31T03:55:59.649Z,19.76
2017-03-31T03:56:18.983Z,19.71
2017-03-31T03:56:38.585Z,19.79
2017-03-31T03:56:57.438Z,19.72
2017-03-31T03:57:16.258Z,19.86
2017-03-31T03:57:35.570Z,19.78
2017-03-31T03:57:54.351Z,19.79
2017-03-31T03:58:13.704Z,19.75
2017-03-31T03:58:33.006Z,19.86
2017-03-31T03:58:52.338Z,19.86
2017-03-31T03:59:11.650Z,19.86
2017-03-31T03:59:30.477Z,19.75
2017-03-31T03:59:49.272Z,19.82
2017-03-31T04:00:08.597Z,19.75
2017-03-31T04:00:27.905Z,19.78
2017-03-31T04:00:47.211Z,19.71
2017-03-31T04:01:06.514Z,19.75
2017-03-31T04:01:25.315Z,19.73
2017-03-31T04:01:44.670Z,19.76
2017-03-31T04:02:03.997Z,19.76
2017-03-31T04:02:23.307Z,19.78
2017-03-31T04:02:42.622Z,19.73
2017-03-31T04:03:01.923Z,19.76
2017-03-31T04:03:20.742Z,19.78
2017-03-31T04:03:39.550Z,19.86
2017-03-31T04:03:58.350Z,19.75
2017-03-31T04:04:17.659Z,19.75
2017-03-31T04:04:37.245Z,19.76
2017-03-31T04:04:56.069Z,19.72
2017-03-31T04:05:15.414Z,19.69
2017-03-31T04:05:34.733Z,19.8
2017-03-31T04:05:54.103Z,19.72
2017-03-31T04:06:12.391Z,19.75
2017-03-31T04:06:31.696Z,19.71
2017-03-31T04:06:50.996Z,19.64
2017-03-31T04:07:09.830Z,19.73
2017-03-31T04:07:29.154Z,19.61
2017-03-31T04:07:47.441Z,19.71
2017-03-31T04:08:06.770Z,19.6
2017-03-31T04:08:25.544Z,19.71